createdAt,value
2023-04-09T00:01:29.785Z,25.00
2023-04-09T00:03:52.515Z,26.43
2023-04-09T00:06:15.745Z,27.98
2023-04-09T00:08:38.278Z,30.25
2023-04-09T00:11:00.959Z,29.40
2023-04-09T00:13:35.597Z,29.65
2023-04-09T00:16:01.872Z,29.77
2023-04-09T00:18:24.720Z,27.92
2023-04-09T00:20:47.452Z,31.65
2023-04-09T00:23:12.516Z,28.65
2023-04-09T00:25:35.691Z,29.17
2023-04-09T00:27:59.181Z,28.93
2023-04-09T00:30:22.063Z,29.73
2023-04-09T00:32:44.667Z,28.50
2023-04-09T00:35:08.142Z,28.35
2023-04-09T00:37:30.963Z,30.48
2023-04-09T00:39:53.746Z,29.70
2023-04-09T00:42:16.622Z,28.25
2023-04-09T00:44:39.239Z,29.00
2023-04-09T00:47:01.812Z,28.50
2023-04-09T00:49:26.441Z,26.42
2023-04-09T00:51:49.214Z,26.43
2023-04-09T00:54:12.545Z,27.58
2023-04-09T00:56:37.019Z,26.13
2023-04-09T00:59:00.003Z,24.25
2023-04-09T01:01:22.914Z,27.33
2023-04-09T01:03:45.989Z,25.07
2023-04-09T01:06:12.606Z,24.48
2023-04-09T01:08:35.748Z,24.80
2023-04-09T01:11:09.142Z,24.00
2023-04-09T01:13:44.838Z,24.40
2023-04-09T01:16:10.719Z,24.10
2023-04-09T01:18:47.572Z,24.42
2023-04-09T01:21:14.235Z,27.63
2023-04-09T01:24:00.127Z,22.52
2023-04-09T01:26:52.758Z,25.10
2023-04-09T01:29:19.974Z,24.63
2023-04-09T01:31:44.290Z,22.88
2023-04-09T01:34:09.185Z,24.17
2023-04-09T01:36:33.299Z,24.52
2023-04-09T01:38:57.132Z,25.92
2023-04-09T01:41:24.510Z,23.80
2023-04-09T01:43:49.494Z,24.55
2023-04-09T01:46:13.531Z,26.13
2023-04-09T01:48:37.002Z,26.73
2023-04-09T01:51:00.223Z,27.52
2023-04-09T01:53:23.165Z,27.67
2023-04-09T01:55:45.931Z,24.35
2023-04-09T01:58:08.664Z,27.50
2023-04-09T02:00:37.077Z,26.48
2023-04-09T02:03:07.471Z,25.25
2023-04-09T02:05:36.385Z,25.90
2023-04-09T02:08:02.920Z,26.45
2023-04-09T02:10:30.045Z,25.83
2023-04-09T02:12:53.830Z,27.48
2023-04-09T02:15:17.753Z,26.25
2023-04-09T02:17:40.485Z,25.73
2023-04-09T02:20:03.798Z,26.35
2023-04-09T02:22:26.632Z,26.95
2023-04-09T02:24:49.300Z,27.42
2023-04-09T02:27:12.204Z,26.40
2023-04-09T02:29:35.249Z,25.77
2023-04-09T02:31:58.023Z,28.15
2023-04-09T02:34:20.754Z,25.23
2023-04-09T02:36:44.300Z,25.60
2023-04-09T02:39:06.882Z,26.58
2023-04-09T02:41:30.746Z,26.97
2023-04-09T02:43:53.332Z,25.45
2023-04-09T02:46:15.956Z,26.30
2023-04-09T02:48:38.536Z,26.53
2023-04-09T02:51:01.852Z,24.48
2023-04-09T02:53:24.454Z,25.30
2023-04-09T02:55:47.582Z,26.90
2023-04-09T02:58:10.257Z,26.17
2023-04-09T03:00:33.188Z,25.80
2023-04-09T03:02:56.026Z,26.70
2023-04-09T03:05:18.846Z,25.97
2023-04-09T03:07:41.450Z,26.23
2023-04-09T03:10:04.478Z,25.70
2023-04-09T03:12:28.141Z,28.00
2023-04-09T03:14:50.905Z,26.77
2023-04-09T03:17:14.084Z,27.50
2023-04-09T03:19:36.771Z,28.33
2023-04-09T03:21:59.797Z,28.13
2023-04-09T03:24:25.003Z,28.65
2023-04-09T03:26:47.707Z,29.23
2023-04-09T03:29:11.403Z,29.53
2023-04-09T03:31:34.943Z,29.48
2023-04-09T03:33:57.743Z,29.38
2023-04-09T03:36:21.095Z,30.38
2023-04-09T03:39:00.655Z,30.30
2023-04-09T03:41:37.069Z,29.87
2023-04-09T03:44:03.083Z,32.00
2023-04-09T03:46:32.174Z,30.50
2023-04-09T03:48:56.632Z,32.05
2023-04-09T03:51:27.246Z,31.17
2023-04-09T03:53:53.330Z,29.53
2023-04-09T03:56:16.040Z,32.50
2023-04-09T03:58:39.198Z,31.65
2023-04-09T04:01:03.758Z,31.67
2023-04-09T04:03:32.910Z,34.17
2023-04-09T04:06:21.744Z,33.10
2023-04-09T04:09:03.048Z,30.67
2023-04-09T04:11:49.208Z,32.30
2023-04-09T04:14:13.149Z,30.80
2023-04-09T04:16:40.922Z,32.97
2023-04-09T04:19:04.068Z,32.43
2023-04-09T04:21:29.184Z,31.58
2023-04-09T04:23:57.443Z,33.90
2023-04-09T04:26:23.304Z,32.05
2023-04-09T04:28:46.538Z,31.50
2023-04-09T04:31:20.559Z,30.57
2023-04-09T04:33:43.582Z,29.20
2023-04-09T04:36:14.248Z,32.78
2023-04-09T04:38:46.562Z,28.17
2023-04-09T04:41:14.898Z,29.00
2023-04-09T04:43:43.457Z,28.40
2023-04-09T04:46:14.126Z,30.42
2023-04-09T04:48:36.927Z,28.75
2023-04-09T04:51:01.338Z,29.90
2023-04-09T04:53:31.558Z,28.63
2023-04-09T04:55:57.132Z,26.83
2023-04-09T04:58:22.362Z,26.02
2023-04-09T05:00:50.052Z,29.30
2023-04-09T05:03:13.250Z,28.98
2023-04-09T05:05:48.506Z,30.63
2023-04-09T05:08:12.110Z,29.87
2023-04-09T05:10:35.997Z,26.00
2023-04-09T05:12:58.774Z,27.30
2023-04-09T05:15:27.299Z,26.27
2023-04-09T05:17:51.153Z,27.73
2023-04-09T05:20:14.421Z,25.93
2023-04-09T05:23:03.525Z,28.42
2023-04-09T05:25:31.610Z,27.52
2023-04-09T05:27:57.550Z,29.77
2023-04-09T05:30:21.703Z,27.55
2023-04-09T05:32:44.599Z,27.57
2023-04-09T05:35:07.619Z,29.25
2023-04-09T05:37:35.743Z,29.90
2023-04-09T05:39:59.146Z,28.35
2023-04-09T05:42:22.321Z,29.90
2023-04-09T05:45:07.125Z,28.70
2023-04-09T05:47:30.118Z,25.73
2023-04-09T05:50:00.327Z,28.27
2023-04-09T05:52:23.699Z,26.90
2023-04-09T05:54:47.551Z,31.65
2023-04-09T05:57:15.004Z,27.27
2023-04-09T05:59:41.894Z,30.10
2023-04-09T06:02:05.564Z,29.73
2023-04-09T06:04:29.297Z,33.10
2023-04-09T06:06:52.109Z,30.17
2023-04-09T06:09:14.692Z,28.23
2023-04-09T06:11:38.451Z,28.02
2023-04-09T06:14:01.157Z,26.92
2023-04-09T06:16:24.033Z,29.42
2023-04-09T06:18:49.690Z,28.83
2023-04-09T06:21:13.598Z,26.70
2023-04-09T06:23:37.002Z,27.58
2023-04-09T06:26:00.477Z,28.95
2023-04-09T06:28:23.244Z,29.60
2023-04-09T06:30:47.002Z,24.75
2023-04-09T06:33:09.806Z,26.40
2023-04-09T06:35:32.586Z,27.35
2023-04-09T06:37:55.709Z,27.10
2023-04-09T06:40:20.104Z,27.42
2023-04-09T06:42:44.030Z,26.55
2023-04-09T06:45:17.882Z,26.93
2023-04-09T06:47:40.587Z,24.83
2023-04-09T06:50:03.840Z,24.60
2023-04-09T06:52:26.528Z,24.17
2023-04-09T06:54:49.132Z,24.92
2023-04-09T06:57:12.183Z,24.83
2023-04-09T06:59:34.812Z,24.67
2023-04-09T07:01:57.556Z,27.63
2023-04-09T07:04:23.766Z,23.83
2023-04-09T07:06:46.884Z,24.45
2023-04-09T07:09:09.514Z,22.60
2023-04-09T07:11:32.512Z,23.30
2023-04-09T07:13:56.955Z,23.83
2023-04-09T07:16:19.702Z,23.13
2023-04-09T07:18:42.505Z,22.15
2023-04-09T07:21:05.426Z,22.53
2023-04-09T07:23:28.148Z,21.48
2023-04-09T07:25:51.694Z,21.98
2023-04-09T07:28:15.491Z,20.15
2023-04-09T07:30:39.998Z,21.23
2023-04-09T07:33:02.598Z,22.00
2023-04-09T07:35:25.488Z,21.77
2023-04-09T07:37:48.503Z,22.40
2023-04-09T07:40:11.631Z,21.27
2023-04-09T07:42:34.549Z,20.50
2023-04-09T07:44:57.474Z,18.70
2023-04-09T07:47:21.821Z,19.08
2023-04-09T07:49:44.648Z,16.40
2023-04-09T07:52:08.116Z,18.73
2023-04-09T07:54:34.017Z,18.05
2023-04-09T07:56:56.743Z,16.63
2023-04-09T07:59:19.385Z,19.40
2023-04-09T08:01:42.595Z,16.70
2023-04-09T08:04:05.878Z,16.30
2023-04-09T08:06:28.531Z,14.85
2023-04-09T08:08:51.526Z,15.07
2023-04-09T08:11:14.520Z,16.17
2023-04-09T08:13:37.427Z,15.38
2023-04-09T08:16:04.003Z,15.23
2023-04-09T08:18:27.255Z,15.23
2023-04-09T08:20:49.938Z,14.90
2023-04-09T08:23:12.866Z,12.55
2023-04-09T08:25:35.524Z,15.43
2023-04-09T08:27:58.307Z,14.20
2023-04-09T08:30:21.639Z,14.50
2023-04-09T08:32:44.831Z,14.63
2023-04-09T08:35:09.149Z,14.70
2023-04-09T08:37:32.638Z,13.20
2023-04-09T08:39:55.434Z,13.15
2023-04-09T08:42:20.526Z,13.90
2023-04-09T08:44:43.960Z,14.87
2023-04-09T08:47:11.653Z,14.68
2023-04-09T08:49:34.394Z,14.05
2023-04-09T08:51:57.287Z,12.90
2023-04-09T08:54:20.278Z,13.35
2023-04-09T08:56:43.356Z,13.70
2023-04-09T08:59:06.257Z,12.82
2023-04-09T09:01:31.008Z,12.93
2023-04-09T09:04:04.647Z,11.98
2023-04-09T09:06:32.077Z,12.43
2023-04-09T09:09:10.035Z,12.23
2023-04-09T09:11:34.606Z,13.07
2023-04-09T09:14:02.315Z,12.50
2023-04-09T09:16:25.227Z,12.25
2023-04-09T09:18:48.258Z,11.68
2023-04-09T09:21:12.830Z,12.37
2023-04-09T09:23:36.820Z,13.68
2023-04-09T09:25:59.574Z,12.82
2023-04-09T09:28:22.154Z,11.68
2023-04-09T09:30:47.864Z,12.30
2023-04-09T09:33:12.462Z,11.07
2023-04-09T09:35:54.660Z,12.73
2023-04-09T09:38:18.298Z,11.73
2023-04-09T09:40:41.267Z,11.23
2023-04-09T09:43:03.841Z,11.00
2023-04-09T09:45:26.683Z,11.67
2023-04-09T09:47:49.932Z,11.15
2023-04-09T09:50:12.571Z,10.93
2023-04-09T09:52:37.290Z,11.80
2023-04-09T09:55:04.423Z,11.85
2023-04-09T09:57:29.595Z,11.07
2023-04-09T10:00:13.895Z,12.63
2023-04-09T10:03:07.370Z,11.98
2023-04-09T10:05:31.076Z,12.50
2023-04-09T10:07:57.443Z,12.45
2023-04-09T10:10:20.511Z,12.33
2023-04-09T10:12:45.391Z,11.90
2023-04-09T10:15:09.560Z,12.05
2023-04-09T10:17:32.760Z,11.88
2023-04-09T10:20:05.502Z,12.00
2023-04-09T10:22:32.348Z,14.20
2023-04-09T10:24:55.865Z,14.20
2023-04-09T10:27:18.665Z,12.55
2023-04-09T10:32:28.440Z,13.48
2023-04-09T10:34:52.146Z,13.00
2023-04-09T10:37:21.119Z,13.02
2023-04-09T10:39:48.092Z,12.52
2023-04-09T10:42:24.814Z,12.18
2023-04-09T10:45:03.852Z,12.82
2023-04-09T10:47:38.223Z,13.30
2023-04-09T10:50:17.265Z,12.70
2023-04-09T10:52:42.292Z,13.18
2023-04-09T10:55:06.656Z,13.25
2023-04-09T10:57:29.349Z,13.48
2023-04-09T10:59:54.284Z,12.43
2023-04-09T11:02:38.330Z,12.88
2023-04-09T11:05:16.525Z,13.50
2023-04-09T11:07:43.630Z,13.70
2023-04-09T11:10:07.405Z,13.15
2023-04-09T11:12:30.376Z,13.50
2023-04-09T11:14:52.964Z,14.18
2023-04-09T11:17:15.702Z,14.10
2023-04-09T11:19:38.755Z,13.40
2023-04-09T11:22:06.614Z,13.90
2023-04-09T11:24:40.662Z,12.77
2023-04-09T11:27:03.405Z,13.85
2023-04-09T11:29:26.116Z,13.05
2023-04-09T11:31:48.803Z,12.95
2023-04-09T11:34:14.916Z,13.98
2023-04-09T11:36:37.718Z,14.40
2023-04-09T11:39:02.571Z,12.18
2023-04-09T11:41:34.609Z,13.38
2023-04-09T11:43:57.344Z,13.65
2023-04-09T11:46:21.551Z,13.18
2023-04-09T11:48:44.501Z,13.37
2023-04-09T11:51:07.425Z,12.88
2023-04-09T11:53:31.213Z,12.45
2023-04-09T11:55:54.449Z,12.88
2023-04-09T11:58:17.557Z,12.65
2023-04-09T12:00:41.476Z,13.23
2023-04-09T12:03:05.914Z,13.18
2023-04-09T12:05:30.784Z,13.57
2023-04-09T12:07:58.936Z,14.25
2023-04-09T12:10:27.539Z,15.70
2023-04-09T12:12:50.268Z,14.43
2023-04-09T12:15:24.354Z,13.55
2023-04-09T12:17:51.680Z,14.80
2023-04-09T12:20:14.394Z,15.27
2023-04-09T12:22:40.859Z,14.07
2023-04-09T12:25:03.580Z,14.97
2023-04-09T12:27:26.317Z,12.32
2023-04-09T12:32:26.164Z,15.00
2023-04-09T12:34:49.997Z,14.05
2023-04-09T12:37:12.629Z,12.30
2023-04-09T12:39:35.574Z,12.93
2023-04-09T12:41:58.202Z,14.38
2023-04-09T12:44:20.864Z,13.70
2023-04-09T12:46:43.551Z,14.10
2023-04-09T12:49:06.495Z,13.47
2023-04-09T12:51:29.430Z,14.55
2023-04-09T12:53:52.352Z,14.63
2023-04-09T12:56:15.516Z,13.80
2023-04-09T12:58:38.622Z,14.40
2023-04-09T13:01:01.550Z,13.63
2023-04-09T13:03:25.252Z,14.35
2023-04-09T13:05:48.359Z,14.07
2023-04-09T13:08:11.216Z,14.23
2023-04-09T13:10:34.072Z,15.63
2023-04-09T13:12:56.841Z,15.30
2023-04-09T13:15:19.555Z,14.27
2023-04-09T13:17:42.160Z,14.20
2023-04-09T13:20:05.705Z,13.70
2023-04-09T13:22:29.029Z,14.88
2023-04-09T13:24:52.766Z,14.07
2023-04-09T13:27:16.510Z,13.57
2023-04-09T13:29:39.281Z,12.82
2023-04-09T13:32:06.912Z,13.15
2023-04-09T13:34:29.771Z,13.75
2023-04-09T13:36:53.438Z,13.50
2023-04-09T13:39:16.213Z,13.48
2023-04-09T13:41:38.960Z,13.43
2023-04-09T13:44:02.170Z,12.77
2023-04-09T13:46:24.736Z,13.23
2023-04-09T13:48:47.639Z,14.03
2023-04-09T13:51:10.515Z,14.20
2023-04-09T13:53:33.151Z,13.05
2023-04-09T13:55:55.845Z,13.30
2023-04-09T13:58:18.576Z,13.25
2023-04-09T14:00:41.395Z,13.27
2023-04-09T14:03:04.848Z,13.02
2023-04-09T14:05:27.505Z,12.95
2023-04-09T14:07:50.706Z,13.45
2023-04-09T14:10:13.296Z,15.60
2023-04-09T14:12:36.358Z,14.60
2023-04-09T14:14:58.931Z,14.55
2023-04-09T14:17:21.747Z,13.00
2023-04-09T14:19:44.500Z,13.43
2023-04-09T14:22:11.537Z,13.80
2023-04-09T14:24:40.101Z,13.23
2023-04-09T14:27:02.949Z,12.48
2023-04-09T14:29:25.576Z,14.02
2023-04-09T14:31:48.800Z,13.98
2023-04-09T14:34:11.438Z,12.15
2023-04-09T14:36:34.059Z,13.07
2023-04-09T14:38:58.082Z,13.68
2023-04-09T14:41:21.737Z,14.07
2023-04-09T14:43:44.626Z,13.05
2023-04-09T14:46:11.701Z,12.77
2023-04-09T14:48:34.403Z,14.20
2023-04-09T14:50:57.345Z,12.88
2023-04-09T14:53:20.122Z,11.80
2023-04-09T14:55:43.083Z,12.57
2023-04-09T14:58:07.790Z,12.88
2023-04-09T15:00:32.053Z,12.97
2023-04-09T15:02:55.264Z,13.15
2023-04-09T15:05:18.453Z,13.02
2023-04-09T15:07:41.730Z,13.30
2023-04-09T15:10:05.082Z,12.02
2023-04-09T15:12:29.032Z,12.00
2023-04-09T15:14:51.793Z,13.60
2023-04-09T15:17:14.388Z,13.10
2023-04-09T15:19:37.191Z,12.15
2023-04-09T15:21:59.943Z,14.20
2023-04-09T15:24:22.629Z,12.83
2023-04-09T15:26:45.282Z,12.25
2023-04-09T15:29:08.482Z,12.95
2023-04-09T15:31:32.436Z,14.32
2023-04-09T15:33:55.352Z,15.45
2023-04-09T15:36:17.971Z,15.90
2023-04-09T15:38:40.892Z,17.40
2023-04-09T15:41:05.311Z,15.02
2023-04-09T15:43:27.942Z,14.40
2023-04-09T15:45:51.467Z,14.77
2023-04-09T15:48:14.222Z,12.93
2023-04-09T15:50:36.855Z,14.65
2023-04-09T15:52:59.602Z,13.27
2023-04-09T15:55:23.354Z,15.05
2023-04-09T15:57:48.632Z,14.90
2023-04-09T16:00:11.761Z,14.27
2023-04-09T16:02:36.949Z,14.35
2023-04-09T16:04:59.472Z,14.63
2023-04-09T16:07:22.106Z,13.18
2023-04-09T16:09:46.209Z,15.10
2023-04-09T16:12:08.933Z,12.77
2023-04-09T16:14:31.529Z,13.00
2023-04-09T16:16:54.222Z,13.73
2023-04-09T16:19:23.973Z,11.82
2023-04-09T16:21:47.036Z,14.52
2023-04-09T16:24:13.231Z,14.33
2023-04-09T16:26:35.939Z,12.45
2023-04-09T16:29:03.106Z,15.07
2023-04-09T16:31:26.416Z,15.80
2023-04-09T16:33:49.029Z,16.27
2023-04-09T16:36:11.780Z,12.20
2023-04-09T16:38:34.442Z,14.60
2023-04-09T16:40:57.170Z,15.02
2023-04-09T16:43:20.071Z,14.30
2023-04-09T16:45:42.909Z,13.18
2023-04-09T16:48:10.889Z,14.67
2023-04-09T16:50:33.808Z,15.23
2023-04-09T16:52:56.718Z,15.98
2023-04-09T16:55:21.520Z,15.85
2023-04-09T16:57:44.318Z,15.57
2023-04-09T17:00:08.172Z,14.97
2023-04-09T17:02:31.513Z,15.48
2023-04-09T17:04:54.344Z,16.55
2023-04-09T17:07:17.040Z,15.18
2023-04-09T17:09:41.365Z,14.70
2023-04-09T17:12:03.923Z,16.00
2023-04-09T17:14:27.512Z,14.63
2023-04-09T17:16:52.937Z,14.93
2023-04-09T17:19:15.747Z,13.15
2023-04-09T17:21:38.336Z,14.82
2023-04-09T17:24:02.897Z,13.87
2023-04-09T17:26:25.763Z,14.98
2023-04-09T17:28:48.478Z,14.15
2023-04-09T17:31:15.993Z,14.80
2023-04-09T17:33:39.441Z,15.45
2023-04-09T17:36:02.193Z,15.53
2023-04-09T17:38:25.309Z,17.73
2023-04-09T17:40:48.229Z,16.80
2023-04-09T17:43:10.868Z,17.88
2023-04-09T17:45:35.699Z,18.58
2023-04-09T17:47:58.451Z,16.40
2023-04-09T17:50:21.409Z,17.15
2023-04-09T17:52:44.097Z,16.00
2023-04-09T17:55:14.067Z,17.13
2023-04-09T17:57:36.870Z,16.48
2023-04-09T17:59:59.694Z,17.40
2023-04-09T18:02:22.984Z,16.20
2023-04-09T18:04:45.960Z,17.90
2023-04-09T18:07:08.820Z,17.73
2023-04-09T18:09:31.784Z,19.52
2023-04-09T18:11:56.429Z,19.20
2023-04-09T18:14:19.057Z,18.45
2023-04-09T18:16:42.172Z,19.48
2023-04-09T18:19:06.068Z,19.10
2023-04-09T18:21:28.733Z,20.17
2023-04-09T18:23:51.740Z,21.50
2023-04-09T18:26:14.380Z,23.33
2023-04-09T18:28:37.201Z,20.40
2023-04-09T18:30:59.868Z,24.67
2023-04-09T18:33:22.544Z,26.52
2023-04-09T18:35:45.383Z,24.27
2023-04-09T18:38:11.363Z,24.42
2023-04-09T18:40:41.067Z,22.67
2023-04-09T18:43:03.833Z,22.10
2023-04-09T18:45:26.636Z,22.92
2023-04-09T18:47:49.609Z,23.77
2023-04-09T18:50:15.629Z,22.48
2023-04-09T18:52:38.915Z,23.58
2023-04-09T18:55:01.749Z,23.67
2023-04-09T18:57:24.518Z,24.50
2023-04-09T18:59:48.279Z,23.97
2023-04-09T19:02:11.518Z,23.73
2023-04-09T19:04:36.607Z,23.08
2023-04-09T19:06:59.327Z,22.40
2023-04-09T19:09:22.394Z,24.45
2023-04-09T19:11:45.304Z,23.73
2023-04-09T19:14:08.049Z,24.98
2023-04-09T19:16:30.905Z,25.80
2023-04-09T19:18:54.195Z,23.17
2023-04-09T19:21:17.978Z,25.02
2023-04-09T19:23:41.345Z,25.93
2023-04-09T19:26:05.523Z,24.88
2023-04-09T19:28:28.843Z,24.60
2023-04-09T19:30:52.550Z,23.90
2023-04-09T19:33:15.684Z,26.08
2023-04-09T19:35:40.833Z,24.70
2023-04-09T19:38:04.971Z,23.33
2023-04-09T19:40:27.802Z,25.85
2023-04-09T19:42:50.531Z,24.73
2023-04-09T19:45:13.614Z,27.80
2023-04-09T19:47:36.579Z,28.73
2023-04-09T19:49:59.610Z,25.92
2023-04-09T19:52:22.294Z,25.70
2023-04-09T19:54:44.869Z,25.55
2023-04-09T19:57:07.451Z,27.10
2023-04-09T19:59:31.379Z,25.93
2023-04-09T20:01:54.100Z,25.63
2023-04-09T20:04:17.614Z,28.60
2023-04-09T20:06:42.468Z,27.48
2023-04-09T20:09:05.809Z,28.35
2023-04-09T20:11:28.749Z,28.83
2023-04-09T20:13:52.052Z,27.23
2023-04-09T20:16:15.467Z,26.75
2023-04-09T20:18:38.273Z,28.02
2023-04-09T20:21:00.945Z,27.38
2023-04-09T20:23:23.483Z,26.17
2023-04-09T20:25:46.294Z,27.80
2023-04-09T20:28:09.941Z,29.38
2023-04-09T20:30:32.936Z,28.45
2023-04-09T20:32:55.733Z,26.73
2023-04-09T20:35:18.526Z,29.20
2023-04-09T20:37:41.296Z,29.52
2023-04-09T20:40:05.294Z,28.00
2023-04-09T20:42:28.180Z,28.73
2023-04-09T20:44:50.918Z,29.98
2023-04-09T20:47:15.502Z,27.90
2023-04-09T20:49:38.413Z,27.60
2023-04-09T20:52:01.578Z,28.13
2023-04-09T20:54:24.283Z,27.67
2023-04-09T20:56:46.948Z,28.00
2023-04-09T20:59:09.580Z,29.77
2023-04-09T21:01:33.397Z,28.30
2023-04-09T21:03:56.888Z,27.08
2023-04-09T21:06:20.422Z,27.40
2023-04-09T21:08:44.186Z,27.63
2023-04-09T21:11:06.852Z,26.50
2023-04-09T21:13:33.646Z,27.60
2023-04-09T21:16:00.517Z,30.40
2023-04-09T21:18:23.255Z,28.38
2023-04-09T21:20:46.552Z,29.17
2023-04-09T21:23:09.167Z,27.87
2023-04-09T21:25:31.889Z,30.02
2023-04-09T21:27:55.166Z,27.33
2023-04-09T21:30:17.803Z,28.02
2023-04-09T21:32:40.429Z,28.77
2023-04-09T21:35:03.229Z,27.07
2023-04-09T21:37:27.221Z,27.90
2023-04-09T21:39:50.096Z,28.52
2023-04-09T21:42:12.675Z,29.27
2023-04-09T21:44:35.445Z,30.60
2023-04-09T21:46:58.051Z,27.43
2023-04-09T21:49:20.763Z,28.25
2023-04-09T21:51:45.700Z,28.45
2023-04-09T21:54:10.091Z,27.65
2023-04-09T21:56:33.404Z,28.65
2023-04-09T21:58:56.182Z,27.10
2023-04-09T22:01:28.623Z,26.00
2023-04-09T22:03:52.337Z,26.52
2023-04-09T22:06:14.921Z,27.65
2023-04-09T22:08:46.039Z,26.98
2023-04-09T22:11:18.203Z,24.10
2023-04-09T22:13:40.809Z,25.67
2023-04-09T22:16:03.520Z,26.00
2023-04-09T22:18:26.138Z,26.17
2023-04-09T22:20:48.850Z,25.42
2023-04-09T22:23:12.392Z,24.87
2023-04-09T22:25:35.337Z,26.48
2023-04-09T22:27:58.065Z,25.63
2023-04-09T22:30:21.891Z,27.38
2023-04-09T22:32:44.789Z,26.30
2023-04-09T22:35:07.647Z,25.57
2023-04-09T22:37:30.859Z,25.40
2023-04-09T22:39:53.810Z,25.50
2023-04-09T22:42:16.488Z,27.17
2023-04-09T22:44:39.893Z,27.77
2023-04-09T22:47:02.576Z,25.33
2023-04-09T22:49:26.038Z,27.95
2023-04-09T22:51:48.770Z,26.38
2023-04-09T22:54:12.442Z,25.90
2023-04-09T22:56:36.684Z,27.17
2023-04-09T22:58:59.730Z,25.07
2023-04-09T23:01:23.214Z,28.77
2023-04-09T23:03:46.230Z,25.88
2023-04-09T23:06:08.782Z,28.48
2023-04-09T23:08:31.720Z,27.92
2023-04-09T23:10:56.613Z,25.60
2023-04-09T23:13:19.756Z,28.90
2023-04-09T23:15:42.871Z,28.65
2023-04-09T23:18:05.750Z,28.10
2023-04-09T23:20:29.674Z,27.38
2023-04-09T23:22:52.766Z,27.57
2023-04-09T23:25:16.604Z,25.98
2023-04-09T23:27:39.361Z,29.60
2023-04-09T23:30:02.118Z,28.50
2023-04-09T23:32:25.921Z,28.90
2023-04-09T23:34:48.559Z,29.87
2023-04-09T23:37:11.657Z,28.98
2023-04-09T23:39:34.304Z,26.17
2023-04-09T23:41:57.873Z,29.13
2023-04-09T23:44:20.651Z,27.98
2023-04-09T23:46:43.387Z,30.63
2023-04-09T23:49:06.472Z,28.55
2023-04-09T23:51:29.386Z,28.40
2023-04-09T23:53:52.411Z,29.23
2023-04-09T23:56:16.209Z,28.25
2023-04-09T23:58:38.903Z,27.27
